Time;durP1;ratioP1;P1;durP2;ratioP2;P2;SDS_P1;SDS_P2;PMS_P1;PMS_P2;Temp;Humidity;BMP_temperature;BMP_pressure;BME280_temperature;BME280_humidity;BME280_pressure;Samples;Min_cycle;Max_cycle;Signal;HPM_P1;HPM_P2
2021/11/07 09:01:42;;;;;;;21.65;4.60;;;;;;;15.60;44.26;102222.06;4975172;28;20420;-80
2021/11/07 09:04:40;;;;;;;14.60;3.95;;;;;;;15.59;44.38;102224.00;4957499;28;20511;-76
2021/11/07 09:09:40;;;;;;;19.90;4.00;;;;;;;15.82;43.98;102231.19;4974990;28;20058;-74
2021/11/07 09:12:07;;;;;;;14.73;3.63;;;;;;;15.91;43.80;102214.72;4974189;28;20042;-80
2021/11/07 09:14:35;;;;;;;22.13;4.72;;;;;;;16.07;43.76;102224.25;4977788;28;20047;-90
2021/11/07 09:17:03;;;;;;;20.15;4.97;;;;;;;16.08;44.07;102217.59;4975985;28;20481;-74
2021/11/07 09:19:30;;;;;;;16.95;4.25;;;;;;;16.02;44.15;102213.34;4976094;28;20034;-90
2021/11/07 09:22:06;;;;;;;19.38;4.82;;;;;;;16.20;43.71;102222.53;4975056;28;20038;-74
2021/11/07 09:27:26;;;;;;;26.40;6.28;;;;;;;16.42;43.77;102232.72;4960908;28;20178;-77
2021/11/07 09:32:46;;;;;;;14.63;4.10;;;;;;;16.40;43.95;102232.25;4974459;28;20053;-77
2021/11/07 09:35:40;;;;;;;21.45;4.28;;;;;;;16.73;43.33;102226.41;4974265;28;20035;-72
2021/11/07 09:38:04;;;;;;;18.90;4.95;;;;;;;16.49;43.88;102233.09;4973724;28;20087;-72
2021/11/07 09:40:32;;;;;;;20.42;5.00;;;;;;;16.84;43.07;102228.56;4957647;28;20473;-69
2021/11/07 09:43:16;;;;;;;22.45;4.95;;;;;;;16.91;43.19;102236.38;4968763;28;20488;-72
2021/11/07 09:45:49;;;;;;;21.02;5.20;;;;;;;16.83;43.63;102237.97;4973669;28;20172;-77
2021/11/07 09:48:21;;;;;;;21.20;6.18;;;;;;;17.05;43.27;102239.03;4972819;28;20035;-71
2021/11/07 09:50:48;;;;;;;23.00;5.20;;;;;;;17.27;42.95;102238.09;4973296;28;20061;-75
2021/11/07 09:53:14;;;;;;;16.10;4.13;;;;;;;17.50;42.68;102239.59;4960217;28;20071;-74
2021/11/07 09:55:40;;;;;;;20.38;4.85;;;;;;;17.37;42.99;102230.31;4963146;28;20392;-73
2021/11/07 09:58:06;;;;;;;16.83;3.85;;;;;;;17.46;42.63;102230.34;4964217;28;20030;-76
2021/11/07 10:00:42;;;;;;;20.05;3.58;;;;;;;17.32;42.99;102237.97;4943193;28;20071;-71
2021/11/07 10:03:09;;;;;;;18.17;3.67;;;;;;;17.02;43.52;102234.16;4960596;28;20034;-73
2021/11/07 10:05:39;;;;;;;13.10;2.97;;;;;;;17.27;43.07;102238.91;4969867;28;20070;-78
2021/11/07 10:08:07;;;;;;;;;;;;;;;17.22;42.97;102238.25;4972496;28;20493;-75
2021/11/07 10:10:39;;;;;;;15.20;3.53;;;;;;;17.44;42.98;102243.66;4972449;28;20001;-75
2021/11/07 10:13:12;;;;;;;18.65;3.55;;;;;;;17.45;42.69;102235.03;4970957;28;20235;-77
2021/11/07 10:15:43;;;;;;;21.35;5.35;;;;;;;17.73;42.13;102230.03;4965141;28;20042;-76
2021/11/07 10:18:15;;;;;;;11.85;3.13;;;;;;;17.55;42.69;102231.16;4963503;28;20076;-75
2021/11/07 10:20:46;;;;;;;16.08;3.58;;;;;;;17.61;41.74;102235.41;4971386;28;20434;-75
2021/11/07 10:23:18;;;;;;;14.88;3.65;;;;;;;17.70;41.68;102239.00;4971846;28;20105;-74
2021/11/07 10:25:59;;;;;;;13.93;3.35;;;;;;;17.77;41.93;102234.94;4971975;28;20058;-74
2021/11/07 10:28:34;;;;;;;14.40;3.60;;;;;;;17.68;42.07;102238.50;4970994;28;20031;-74
2021/11/07 10:31:05;;;;;;;15.98;3.63;;;;;;;18.16;41.26;102242.22;4974335;28;20027;-88
2021/11/07 10:39:20;;;;;;;18.77;3.85;;;;;;;18.32;40.90;102242.50;4975489;28;20033;-75
2021/11/07 10:44:40;;;;;;;12.40;3.47;;;;;;;18.53;40.47;102254.50;4972267;28;20039;-75
2021/11/07 10:47:49;;;;;;;29.55;4.40;;;;;;;18.64;39.93;102241.91;4972165;28;20075;-75
2021/11/07 10:53:12;;;;;;;13.90;3.95;;;;;;;18.42;40.78;102244.91;4973746;28;20042;-75
2021/11/07 10:55:45;;;;;;;19.42;5.15;;;;;;;18.69;40.13;102241.78;4973435;28;20031;-74
2021/11/07 10:58:11;;;;;;;15.85;3.90;;;;;;;18.80;39.68;102240.25;4973252;28;20030;-73
2021/11/07 11:00:48;;;;;;;11.38;3.25;;;;;;;18.83;39.17;102231.28;4963748;28;20094;-81
2021/11/07 11:03:20;;;;;;;15.80;4.03;;;;;;;18.95;39.18;102235.28;4959154;28;20028;-81
2021/11/07 11:05:58;;;;;;;13.10;3.80;;;;;;;18.99;39.05;102241.81;4953973;29;20389;-74
2021/11/07 11:08:35;;;;;;;18.10;3.22;;;;;;;18.45;39.85;102252.56;4952777;29;20019;-78
2021/11/07 11:21:46;;;;;;;12.38;3.17;;;;;;;18.80;39.28;102236.66;4957527;29;20035;-73
2021/11/07 11:32:17;;;;;;;11.88;3.70;;;;;;;19.27;38.46;102237.41;4957381;29;20450;-73
2021/11/07 11:35:08;;;;;;;14.70;4.43;;;;;;;19.18;38.54;102247.72;4957121;29;20047;-81
2021/11/07 11:40:36;;;;;;;16.95;4.03;;;;;;;19.13;39.30;102234.06;4957085;29;20030;-73
2021/11/07 11:45:36;;;;;;;11.43;2.95;;;;;;;19.47;38.55;102232.19;4956691;28;20039;-74
2021/11/07 11:51:01;;;;;;;15.55;3.63;;;;;;;19.47;38.54;102229.44;4956898;29;20019;-73
2021/11/07 11:53:45;;;;;;;15.13;3.63;;;;;;;19.83;38.07;102223.31;4956913;29;20019;-73
2021/11/07 11:56:50;;;;;;;19.13;4.05;;;;;;;19.74;38.18;102226.16;4956875;29;20055;-73
2021/11/07 11:59:47;;;;;;;20.08;4.72;;;;;;;19.54;38.74;102224.16;4956962;28;20047;-73
2021/11/07 12:02:36;;;;;;;14.15;3.75;;;;;;;19.70;38.43;102216.88;4952040;29;20466;-73
2021/11/07 12:05:12;;;;;;;16.33;2.88;;;;;;;20.09;37.90;102209.97;4939424;29;20027;-73
2021/11/07 12:07:49;;;;;;;16.33;2.95;;;;;;;19.61;38.45;102210.59;4956704;29;20028;-73
2021/11/07 12:10:33;;;;;;;16.48;5.00;;;;;;;19.57;38.69;102209.63;4956468;29;20030;-74
2021/11/07 12:13:08;;;;;;;12.75;3.30;;;;;;;19.99;38.14;102210.41;4956792;29;20042;-73
2021/11/07 12:15:50;;;;;;;12.93;3.22;;;;;;;19.97;38.15;102207.19;4956342;29;20513;-74
2021/11/07 12:18:16;;;;;;;12.55;2.33;;;;;;;19.74;38.59;102203.97;4956334;29;20397;-73
2021/11/07 12:20:44;;;;;;;12.93;2.90;;;;;;;20.08;38.05;102202.00;4956382;28;20031;-73
2021/11/07 12:23:14;;;;;;;19.83;3.05;;;;;;;19.80;38.73;102208.16;4956351;29;20160;-73
2021/11/07 12:25:40;;;;;;;;;;;;;;;19.99;38.27;102209.59;4956534;29;20050;-73
2021/11/07 12:28:06;;;;;;;11.65;3.30;;;;;;;20.53;37.38;102201.19;4956335;29;19925;-75
2021/11/07 12:30:33;;;;;;;18.33;3.50;;;;;;;20.42;37.73;102198.84;4938027;29;20481;-75
2021/11/07 12:33:11;;;;;;;15.25;3.50;;;;;;;20.43;37.19;102183.00;4956036;29;20031;-75
2021/11/07 12:35:43;;;;;;;14.38;4.72;;;;;;;20.12;37.22;102180.75;4956095;29;20042;-75
2021/11/07 12:41:13;;;;;;;;;;;;;;;20.15;37.22;102183.63;4956432;29;20521;-76
2021/11/07 12:43:46;;;;;;;21.15;4.72;;;;;;;20.03;37.06;102161.44;4955965;29;19914;-75
2021/11/07 12:46:30;;;;;;;10.07;3.45;;;;;;;20.42;36.37;102165.53;4938951;29;20393;-76
2021/11/07 12:49:03;;;;;;;13.52;3.30;;;;;;;20.31;36.88;102163.53;4955760;29;20093;-74
2021/11/07 12:51:42;;;;;;;14.40;3.72;;;;;;;20.16;36.53;102159.47;4955875;29;20019;-74
2021/11/07 12:54:23;;;;;;;20.27;3.20;;;;;;;20.32;36.47;102154.88;4955827;29;20397;-75
2021/11/07 12:57:00;;;;;;;14.77;3.40;;;;;;;20.23;36.83;102159.72;4938370;29;20390;-74
2021/11/07 12:59:39;;;;;;;12.52;3.28;;;;;;;20.46;36.20;102162.91;4955449;29;20051;-75
2021/11/07 13:02:18;;;;;;;26.77;3.80;;;;;;;20.56;36.10;102169.97;4955620;29;20031;-74
2021/11/07 13:05:37;;;;;;;14.23;3.72;;;;;;;20.63;36.02;102172.97;4955423;29;20024;-75
2021/11/07 13:07:51;;;;;;;12.93;3.15;;;;;;;20.40;36.47;102176.19;4944856;29;20036;-75
2021/11/07 13:10:24;;;;;;;11.35;2.55;;;;;;;20.49;35.80;102176.91;4955393;29;20091;-76
2021/11/07 13:12:54;;;;;;;8.57;2.60;;;;;;;20.41;35.77;102175.03;4955572;29;20354;-75
2021/11/07 13:26:09;;;;;;;12.65;3.45;;;;;;;21.03;35.45;102173.06;4955232;29;20460;-75
2021/11/07 13:28:42;;;;;;;13.15;3.20;;;;;;;20.58;36.28;102164.88;4955235;29;20035;-75
2021/11/07 13:31:19;;;;;;;17.08;3.85;;;;;;;20.81;35.81;102165.22;4955130;29;20031;-74
2021/11/07 13:33:46;;;;;;;12.02;2.92;;;;;;;20.96;35.71;102158.94;4955240;29;20058;-75
2021/11/07 13:36:20;;;;;;;10.43;2.22;;;;;;;20.72;35.57;102160.59;4955093;29;20054;-75
2021/11/07 13:38:52;;;;;;;10.75;2.38;;;;;;;20.80;35.45;102172.75;4955232;29;20098;-77
2021/11/07 13:41:24;;;;;;;12.38;3.53;;;;;;;21.18;34.85;102171.53;4954979;28;20034;-74
2021/11/07 13:44:23;;;;;;;10.85;2.53;;;;;;;20.92;34.92;102175.50;4954853;29;20432;-75
2021/11/07 13:46:51;;;;;;;10.50;2.70;;;;;;;21.03;35.21;102170.28;4947229;29;20035;-75
2021/11/07 13:49:17;;;;;;;8.25;3.10;;;;;;;21.14;35.16;102174.19;4954882;29;20027;-75
2021/11/07 13:51:56;;;;;;;15.65;3.47;;;;;;;21.14;34.66;102178.94;4954791;28;20030;-75
2021/11/07 13:54:22;;;;;;;15.40;3.57;;;;;;;20.97;34.93;102188.34;4954688;29;20389;-75
2021/11/07 13:56:49;;;;;;;19.38;3.80;;;;;;;21.10;34.49;102184.41;4954863;29;20024;-75
2021/11/07 13:59:45;;;;;;;14.35;3.10;;;;;;;20.96;34.81;102197.84;4954513;29;20051;-79
2021/11/07 14:02:21;;;;;;;15.30;2.97;;;;;;;21.08;34.79;102194.22;4954753;29;20023;-75
2021/11/07 14:04:49;;;;;;;13.07;3.20;;;;;;;20.96;35.00;102184.78;4954485;28;20573;-75
2021/11/07 14:07:17;;;;;;;13.63;3.35;;;;;;;20.80;35.07;102181.09;4954819;29;20414;-75
2021/11/07 14:10:05;;;;;;;11.15;2.38;;;;;;;20.84;35.14;102172.84;4954391;29;20023;-75
2021/11/07 14:12:54;;;;;;;8.63;3.20;;;;;;;20.82;35.35;102175.16;4937239;29;20461;-82
2021/11/07 14:15:22;;;;;;;12.20;3.20;;;;;;;20.69;35.23;102177.13;4954860;29;20027;-75
2021/11/07 14:17:50;;;;;;;11.23;2.45;;;;;;;20.69;35.17;102183.50;4954506;29;20489;-75
2021/11/07 14:20:46;;;;;;;11.02;3.05;;;;;;;20.69;35.24;102191.81;4954670;29;20031;-74
2021/11/07 14:23:24;;;;;;;16.83;2.95;;;;;;;20.85;35.08;102191.94;4937058;29;20579;-76
2021/11/07 14:25:53;;;;;;;12.10;3.05;;;;;;;20.97;35.07;102200.28;4937125;29;20057;-74
2021/11/07 14:28:23;;;;;;;18.48;3.70;;;;;;;21.12;34.81;102198.75;4954370;29;20546;-74
2021/11/07 14:30:49;;;;;;;;;;;;;;;21.20;34.80;102197.81;4955088;29;20065;-74
2021/11/07 14:33:24;;;;;;;10.25;2.67;;;;;;;21.23;34.97;102190.72;4954391;28;19914;-74
2021/11/07 14:35:52;;;;;;;7.18;2.33;;;;;;;20.91;35.47;102176.66;4954633;29;20482;-74
2021/11/07 14:38:24;;;;;;;11.82;2.30;;;;;;;20.93;35.09;102179.09;4954537;29;20409;-74
2021/11/07 14:43:24;;;;;;;10.98;3.42;;;;;;;20.78;35.10;102177.81;4954086;29;20028;-74
2021/11/07 14:54:25;;;;;;;12.80;2.85;;;;;;;20.65;35.31;102179.81;4916785;29;20036;-75
2021/11/07 14:59:44;;;;;;;12.82;2.95;;;;;;;20.50;35.49;102170.19;4957853;29;20449;-77
2021/11/07 15:05:21;;;;;;;9.43;3.33;;;;;;;20.39;35.90;102171.75;4957670;29;20035;-76
2021/11/07 15:07:49;;;;;;;10.65;2.67;;;;;;;20.73;35.10;102180.84;4957190;29;20428;-75
2021/11/07 15:13:04;;;;;;;10.23;3.25;;;;;;;20.79;35.41;102182.25;4957658;29;20106;-75
2021/11/07 15:15:42;;;;;;;15.82;3.10;;;;;;;20.78;35.08;102175.03;4940360;29;20053;-77
2021/11/07 15:23:40;;;;;;;13.27;4.22;;;;;;;20.53;35.87;102168.69;4957344;29;20430;-75
2021/11/07 15:26:27;;;;;;;15.02;3.67;;;;;;;20.61;35.70;102169.72;4957577;29;20035;-75
2021/11/07 15:28:58;;;;;;;13.38;3.97;;;;;;;20.44;36.00;102168.00;4957250;29;20039;-74
2021/11/07 15:31:29;;;;;;;10.13;2.97;;;;;;;20.48;36.17;102166.16;4957585;29;20038;-74
2021/11/07 15:33:55;;;;;;;12.77;2.67;;;;;;;20.50;35.90;102170.19;4957210;29;20491;-74
2021/11/07 15:36:30;;;;;;;15.50;3.70;;;;;;;20.34;36.26;102165.66;4939978;29;20657;-74
2021/11/07 15:39:07;;;;;;;13.07;3.97;;;;;;;20.44;36.25;102160.47;4957209;29;20138;-74
2021/11/07 15:41:34;;;;;;;18.55;3.17;;;;;;;20.52;35.97;102164.28;4957243;29;20055;-75
2021/11/07 15:44:05;;;;;;;11.98;3.63;;;;;;;20.41;36.23;102161.16;4957026;29;20023;-75
2021/11/07 15:46:32;;;;;;;18.15;4.50;;;;;;;20.38;36.35;102167.38;4939870;29;20394;-75
2021/11/07 15:48:58;;;;;;;13.52;3.50;;;;;;;20.41;36.29;102163.91;4957005;28;20057;-75
2021/11/07 15:51:33;;;;;;;16.27;4.40;;;;;;;20.25;36.70;102168.50;4956837;28;20027;-74
2021/11/07 15:56:43;;;;;;;14.48;4.13;;;;;;;20.22;36.50;102174.75;4956800;29;20454;-76
2021/11/07 16:02:10;;;;;;;12.10;3.83;;;;;;;20.13;37.16;102176.81;4957066;29;20090;-74
2021/11/07 16:04:46;;;;;;;13.35;3.13;;;;;;;20.09;37.21;102175.88;4956441;28;20036;-73
2021/11/07 16:07:22;;;;;;;24.85;5.13;;;;;;;20.09;37.15;102173.09;4956768;29;20023;-74
2021/11/07 16:12:49;;;;;;;12.75;4.20;;;;;;;19.86;37.49;102173.50;4914842;29;20067;-74
2021/11/07 16:15:25;;;;;;;13.35;4.03;;;;;;;19.80;37.58;102180.44;4956353;29;20035;-74
2021/11/07 16:17:53;;;;;;;11.75;3.13;;;;;;;19.86;37.26;102184.59;4956553;29;20433;-75
2021/11/07 16:20:21;;;;;;;11.65;3.20;;;;;;;19.91;37.20;102173.28;4956249;29;20038;-75
2021/11/07 16:22:51;;;;;;;8.85;3.10;;;;;;;19.80;37.44;102172.09;4956264;29;20082;-75
2021/11/07 16:25:20;;;;;;;12.38;4.25;;;;;;;19.80;37.34;102174.88;4956492;29;20462;-75
2021/11/07 16:27:46;;;;;;;20.15;5.32;;;;;;;19.67;37.60;102170.44;4956327;28;20042;-75
2021/11/07 16:30:18;;;;;;;18.45;4.32;;;;;;;19.63;37.65;102167.50;4956127;28;20023;-75
2021/11/07 16:35:39;;;;;;;13.57;6.17;;;;;;;19.53;37.63;102181.78;4956503;29;20109;-75
2021/11/07 16:38:19;;;;;;;11.63;5.53;;;;;;;19.44;38.05;102188.53;4956080;29;20353;-75
2021/11/07 16:43:44;;;;;;;19.88;4.07;;;;;;;19.17;38.08;102195.41;4938980;29;20071;-75
2021/11/07 16:46:11;;;;;;;16.00;3.40;;;;;;;19.10;38.36;102196.75;4955807;28;20034;-74
2021/11/07 16:48:42;;;;;;;14.15;3.67;;;;;;;19.19;38.21;102198.66;4955759;29;20039;-74
2021/11/07 16:51:17;;;;;;;21.75;5.57;;;;;;;19.19;38.19;102191.13;4955805;29;20114;-74
2021/11/07 16:53:54;;;;;;;17.13;5.55;;;;;;;19.21;38.25;102202.72;4954934;29;20434;-74
2021/11/07 16:56:20;;;;;;;12.05;3.63;;;;;;;19.13;38.40;102206.38;4956015;29;20031;-74
2021/11/07 16:58:57;;;;;;;12.50;3.95;;;;;;;19.03;38.43;102207.53;4955346;28;20363;-74
2021/11/07 17:01:35;;;;;;;10.73;3.30;;;;;;;19.03;38.46;102218.63;4955520;29;20041;-74
2021/11/07 17:04:06;;;;;;;13.13;3.63;;;;;;;18.95;38.56;102221.44;4955697;29;20086;-74
2021/11/07 17:07:17;;;;;;;8.18;3.95;;;;;;;18.93;38.65;102235.63;4955544;29;20019;-74
2021/11/07 17:09:32;;;;;;;10.23;3.63;;;;;;;18.91;38.60;102232.41;4947368;29;20462;-75
2021/11/07 17:12:01;;;;;;;14.85;3.60;;;;;;;18.91;38.88;102220.50;4955435;29;20032;-75
2021/11/07 17:14:27;;;;;;;15.90;4.20;;;;;;;18.90;38.69;102200.31;4955375;29;20027;-75
2021/11/07 17:17:06;;;;;;;18.02;7.18;;;;;;;18.88;38.68;102218.38;4954767;28;20110;-74
2021/11/07 17:19:53;;;;;;;16.95;6.32;;;;;;;18.82;38.71;102221.38;4938052;29;20031;-74
2021/11/07 17:25:04;;;;;;;16.92;5.80;;;;;;;18.62;39.04;102212.94;4955184;29;20117;-74
2021/11/07 17:27:48;;;;;;;14.33;5.37;;;;;;;18.58;39.04;102218.31;4955153;29;20465;-74
2021/11/07 17:30:25;;;;;;;21.65;9.23;;;;;;;18.40;39.31;102223.13;4955357;29;20458;-74
2021/11/07 17:32:56;;;;;;;20.70;7.35;;;;;;;18.36;39.34;102215.78;4954923;29;20038;-75
2021/11/07 17:35:33;;;;;;;15.70;5.75;;;;;;;18.35;39.31;102214.97;4955295;29;20438;-74
2021/11/07 17:56:43;;;;;;;18.25;6.95;;;;;;;17.91;39.82;102243.84;4954674;29;20038;-74
2021/11/07 17:59:08;;;;;;;17.27;4.60;;;;;;;17.85;39.84;102234.94;4954476;28;20039;-75
2021/11/07 18:01:34;;;;;;;12.43;5.53;;;;;;;17.86;39.68;102238.50;4954520;28;20031;-74
2021/11/07 18:04:00;;;;;;;15.73;5.43;;;;;;;17.73;40.17;102232.00;4954564;28;20031;-74
2021/11/07 18:06:29;;;;;;;12.77;6.13;;;;;;;17.75;40.01;102233.28;4954788;29;20030;-74
2021/11/07 18:08:58;;;;;;;15.80;5.03;;;;;;;17.73;39.93;102243.06;4954536;28;20023;-74
2021/11/07 18:11:27;;;;;;;12.80;4.67;;;;;;;17.72;40.22;102241.44;4954515;29;20020;-80
2021/11/07 18:13:53;;;;;;;14.02;6.43;;;;;;;17.52;40.42;102244.78;4954576;29;20265;-74
2021/11/07 18:16:18;;;;;;;19.67;5.43;;;;;;;17.56;40.53;102249.38;4954506;29;20036;-74
2021/11/07 18:18:45;;;;;;;16.13;5.20;;;;;;;17.55;40.63;102246.94;4954509;28;20034;-75
2021/11/07 18:21:12;;;;;;;18.20;6.35;;;;;;;17.61;40.54;102242.88;4954508;28;20062;-75
2021/11/07 18:23:46;;;;;;;18.33;7.13;;;;;;;17.64;40.73;102239.44;4954446;29;20038;-75
2021/11/07 18:26:14;;;;;;;14.18;5.45;;;;;;;17.64;40.66;102240.25;4954413;29;20023;-75
2021/11/07 18:28:41;;;;;;;22.13;6.75;;;;;;;17.48;41.05;102236.34;4956846;28;20082;-75
2021/11/07 18:31:07;;;;;;;20.50;6.55;;;;;;;17.52;41.00;102236.50;4958551;28;20039;-75
2021/11/07 18:33:33;;;;;;;12.85;6.72;;;;;;;17.56;40.62;102243.84;4958095;29;20063;-75
2021/11/07 18:35:59;;;;;;;18.10;6.50;;;;;;;17.59;40.64;102242.38;4958103;28;20486;-82
2021/11/07 18:38:27;;;;;;;22.20;7.70;;;;;;;17.43;41.00;102239.25;4958183;28;20035;-75
2021/11/07 18:40:58;;;;;;;15.02;6.40;;;;;;;17.38;41.09;102239.41;4958394;29;20474;-75
2021/11/07 18:43:25;;;;;;;29.63;8.50;;;;;;;17.46;40.85;102238.63;4958339;28;20089;-74
2021/11/07 18:45:51;;;;;;;15.30;6.70;;;;;;;17.44;40.73;102250.00;4958075;29;20035;-74
2021/11/07 18:48:17;;;;;;;13.50;6.70;;;;;;;17.14;41.28;102245.38;4957805;29;20037;-75
2021/11/07 18:50:44;;;;;;;16.77;6.18;;;;;;;17.22;41.10;102244.59;4957301;28;20038;-74
2021/11/07 18:53:11;;;;;;;19.52;8.57;;;;;;;17.22;40.96;102241.00;4956664;29;20434;-74
2021/11/07 18:55:38;;;;;;;26.05;15.18;;;;;;;17.16;41.20;102246.72;4956532;29;20049;-73
2021/11/07 18:58:05;;;;;;;30.23;17.58;;;;;;;17.22;41.03;102252.06;4956338;29;20031;-73
2021/11/07 19:00:34;;;;;;;15.13;8.52;;;;;;;17.24;40.70;102255.34;4956331;29;20406;-73
2021/11/07 19:03:01;;;;;;;20.52;7.10;;;;;;;17.26;40.60;102258.59;4956496;29;20043;-75
2021/11/07 19:05:28;;;;;;;16.63;7.88;;;;;;;17.21;40.78;102259.53;4962881;28;20053;-73
2021/11/07 19:07:55;;;;;;;17.67;9.63;;;;;;;17.06;40.82;102252.50;4972326;28;20038;-71
2021/11/07 19:10:22;;;;;;;22.23;10.15;;;;;;;16.96;41.13;102252.81;4974809;28;20027;-72
2021/11/07 19:12:49;;;;;;;20.38;10.88;;;;;;;16.89;41.16;102246.94;4974801;28;20031;-73
2021/11/07 19:15:16;;;;;;;22.08;11.40;;;;;;;16.87;41.17;102250.03;4974802;28;20034;-74
2021/11/07 19:17:45;;;;;;;23.25;10.57;;;;;;;16.84;41.31;102256.16;4964059;28;20138;-77
2021/11/07 19:20:12;;;;;;;22.45;8.90;;;;;;;16.81;41.24;102247.72;4958382;28;20059;-75
2021/11/07 19:22:38;;;;;;;15.85;7.60;;;;;;;16.78;41.26;102245.59;4958629;28;20027;-74
2021/11/07 19:25:04;;;;;;;14.18;6.60;;;;;;;16.76;41.29;102242.31;4958456;28;20066;-75
2021/11/07 19:27:30;;;;;;;16.98;8.15;;;;;;;16.55;41.73;102239.28;4959278;28;20082;-75
2021/11/07 19:29:58;;;;;;;18.13;7.20;;;;;;;16.57;41.46;102239.78;4960097;28;20035;-74
2021/11/07 19:32:24;;;;;;;16.77;8.30;;;;;;;16.55;41.48;102233.75;4974769;28;20443;-73
2021/11/07 19:34:50;;;;;;;18.90;9.95;;;;;;;16.57;41.25;102235.09;4974584;28;20473;-70
2021/11/07 19:37:17;;;;;;;18.08;7.70;;;;;;;16.39;41.70;102238.88;4962784;28;20045;-80
2021/11/07 19:39:43;;;;;;;23.40;8.80;;;;;;;16.48;41.52;102233.41;4957475;28;20540;-75
2021/11/07 19:42:12;;;;;;;17.88;9.25;;;;;;;16.41;41.58;102236.63;4962732;28;20111;-74
2021/11/07 19:44:43;;;;;;;23.33;9.30;;;;;;;16.26;41.75;102228.75;4975028;28;20027;-75
2021/11/07 19:47:09;;;;;;;24.52;10.18;;;;;;;16.34;41.67;102228.81;4975130;28;20544;-78
2021/11/07 19:49:47;;;;;;;22.27;10.55;;;;;;;16.36;41.74;102215.50;4975395;28;20117;-73
2021/11/07 19:52:16;;;;;;;18.33;9.48;;;;;;;16.26;41.84;102207.50;4976133;28;20086;-72
2021/11/07 19:54:43;;;;;;;19.75;9.15;;;;;;;16.31;41.57;102214.81;4971022;28;20034;-70
2021/11/07 19:57:09;;;;;;;20.52;10.60;;;;;;;16.32;41.70;102208.16;4960622;28;20637;-82
2021/11/07 19:59:39;;;;;;;22.02;10.43;;;;;;;16.32;41.45;102213.66;4943833;28;20058;-73
2021/11/07 20:02:18;;;;;;;17.45;9.45;;;;;;;16.29;41.60;102217.06;4960524;28;20058;-86
2021/11/07 20:05:04;;;;;;;17.52;9.65;;;;;;;16.23;41.51;102215.56;4959984;28;20026;-70
2021/11/07 20:10:14;;;;;;;25.92;14.40;;;;;;;16.13;41.58;102210.34;4962373;28;20033;-76
2021/11/07 20:12:40;;;;;;;20.67;12.82;;;;;;;16.11;41.57;102218.13;4960355;28;20062;-76
2021/11/07 20:15:06;;;;;;;28.45;12.20;;;;;;;16.04;41.82;102219.38;4958353;28;20033;-75
2021/11/07 20:17:33;;;;;;;23.42;13.98;;;;;;;16.06;41.68;102221.81;4959818;28;20862;-75
2021/11/07 20:19:59;;;;;;;23.95;11.48;;;;;;;15.99;41.79;102213.16;4958425;28;20392;-78
2021/11/07 20:22:25;;;;;;;19.38;11.82;;;;;;;15.99;41.80;102213.97;4939037;29;20409;-76
2021/11/07 20:24:51;;;;;;;22.48;13.13;;;;;;;15.98;41.54;102222.56;4957271;28;20038;-79
2021/11/07 20:27:24;;;;;;;25.15;11.55;;;;;;;15.84;41.89;102213.53;4959169;28;20031;-75
2021/11/07 20:29:52;;;;;;;20.55;10.63;;;;;;;15.88;41.71;102207.09;4966282;28;20030;-79
2021/11/07 20:32:20;;;;;;;19.58;10.93;;;;;;;15.86;41.74;102203.81;4975578;28;20026;-78
2021/11/07 20:34:52;;;;;;;21.52;11.65;;;;;;;15.87;41.56;102208.22;4967074;28;20026;-82
2021/11/07 20:37:21;;;;;;;24.98;13.00;;;;;;;15.82;41.74;102209.16;4958893;28;20033;-76
2021/11/07 20:39:51;;;;;;;20.45;11.70;;;;;;;15.80;41.65;102214.16;4960761;28;20552;-77
2021/11/07 20:42:22;;;;;;;20.33;11.55;;;;;;;15.69;41.70;102199.00;4942732;28;20042;-75
2021/11/07 20:44:55;;;;;;;20.33;11.30;;;;;;;15.75;41.84;102194.19;4965270;28;20389;-80
2021/11/07 20:53:05;;;;;;;16.75;9.50;;;;;;;15.62;41.91;102175.75;4971481;28;20126;-77
2021/11/07 20:58:20;;;;;;;17.95;9.00;;;;;;;15.65;41.79;102180.66;4974965;28;20023;-79
2021/11/07 21:00:50;;;;;;;21.33;10.40;;;;;;;15.65;41.66;102180.66;4967007;28;20078;-79
2021/11/07 21:03:29;;;;;;;20.02;10.63;;;;;;;15.60;41.78;102187.06;4957628;28;20260;-81
2021/11/07 21:06:09;;;;;;;25.50;12.95;;;;;;;15.59;41.80;102181.88;4958240;28;20047;-79
2021/11/07 21:11:12;;;;;;;23.90;11.77;;;;;;;15.42;41.92;102183.34;4959035;28;20489;-80
2021/11/07 21:13:40;;;;;;;18.13;11.23;;;;;;;15.42;42.18;102171.53;4958095;28;20023;-80
2021/11/07 21:23:50;;;;;;;22.08;10.25;;;;;;;15.16;42.51;102172.09;4965919;28;20114;-82
2021/11/07 21:26:18;;;;;;;18.92;9.48;;;;;;;15.32;42.21;102161.53;4959736;28;20556;-82
2021/11/07 21:28:48;;;;;;;16.65;9.75;;;;;;;15.41;42.22;102165.19;4957744;28;20026;-81
2021/11/07 21:31:17;;;;;;;20.17;13.05;;;;;;;15.47;41.68;102166.69;4942804;28;20071;-78
2021/11/07 21:44:17;;;;;;;21.30;12.88;;;;;;;15.38;41.80;102187.03;4964876;28;20019;-78
2021/11/07 21:46:50;;;;;;;17.75;11.20;;;;;;;15.46;41.70;102187.09;4978240;28;20073;-80
2021/11/07 21:49:18;;;;;;;16.15;10.65;;;;;;;15.45;41.52;102179.16;4964511;28;20410;-79
2021/11/07 21:51:45;;;;;;;17.17;10.73;;;;;;;15.31;41.67;102187.44;4964857;28;20518;-81
2021/11/07 21:54:11;;;;;;;18.67;10.98;;;;;;;15.35;41.47;102193.16;4956008;28;20075;-75
2021/11/07 21:56:37;;;;;;;16.27;10.13;;;;;;;15.31;41.50;102197.66;4973416;28;20124;-76
2021/11/07 21:59:08;;;;;;;21.58;11.27;;;;;;;15.26;41.66;102195.81;4973143;28;20109;-78
2021/11/07 22:01:35;;;;;;;18.15;11.70;;;;;;;15.23;41.53;102182.69;4973601;28;20056;-77
2021/11/07 22:04:01;;;;;;;17.70;10.75;;;;;;;15.25;41.42;102186.75;4974174;28;20026;-77
2021/11/07 22:06:26;;;;;;;20.63;11.70;;;;;;;15.21;41.55;102198.69;4971560;28;20019;-80
2021/11/07 22:08:52;;;;;;;23.30;10.45;;;;;;;15.20;41.79;102192.38;4960776;28;20033;-79
2021/11/07 22:11:24;;;;;;;16.63;12.50;;;;;;;15.28;41.35;102190.84;4972633;28;20384;-78
2021/11/07 22:13:50;;;;;;;15.30;10.73;;;;;;;15.26;41.51;102185.66;4974005;28;20023;-79
2021/11/07 22:16:25;;;;;;;17.63;9.80;;;;;;;15.26;41.72;102179.28;4956838;28;20034;-79
2021/11/07 22:18:57;;;;;;;17.63;10.98;;;;;;;15.25;41.52;102175.72;4956804;28;20047;-79
2021/11/07 22:21:28;;;;;;;27.70;12.60;;;;;;;15.29;41.43;102166.88;4974267;28;20101;-78
2021/11/07 22:24:00;;;;;;;20.35;10.65;;;;;;;15.30;41.32;102169.31;4973970;28;20110;-80
2021/11/07 22:26:37;;;;;;;14.35;10.18;;;;;;;15.30;41.41;102172.06;4973919;28;20155;-79
2021/11/07 22:29:11;;;;;;;14.75;10.15;;;;;;;15.22;41.44;102162.59;4956516;28;20085;-79
2021/11/07 22:32:28;;;;;;;18.77;10.65;;;;;;;15.27;41.43;102165.25;4974153;28;20064;-79
2021/11/07 22:34:28;;;;;;;21.08;11.00;;;;;;;15.30;41.29;102171.25;4959255;28;20034;-79
2021/11/07 22:37:02;;;;;;;17.80;10.73;;;;;;;15.04;41.77;102170.97;4972272;28;20030;-79
2021/11/07 22:39:39;;;;;;;17.33;10.85;;;;;;;15.20;41.37;102158.53;4955128;28;20122;-80
2021/11/07 22:42:11;;;;;;;24.25;11.95;;;;;;;15.14;41.36;102163.34;4972386;28;20564;-80
2021/11/07 22:44:38;;;;;;;18.08;11.73;;;;;;;15.14;41.38;102157.00;4972141;28;20061;-80
2021/11/07 22:47:07;;;;;;;18.65;10.50;;;;;;;15.09;41.79;102157.94;4972148;28;20030;-80
2021/11/07 22:49:36;;;;;;;15.57;10.95;;;;;;;15.03;41.78;102152.84;4972022;28;20027;-80
2021/11/07 22:55:28;;;;;;;17.25;10.25;;;;;;;15.19;41.54;102160.47;4972392;28;20415;-79
2021/11/07 22:59:54;;;;;;;21.10;11.10;;;;;;;15.23;41.13;102150.44;4973559;28;20042;-77
2021/11/07 23:05:07;;;;;;;18.05;10.50;;;;;;;15.32;41.46;102142.25;4973727;28;20125;-78
2021/11/07 23:07:33;;;;;;;20.30;10.60;;;;;;;15.34;41.41;102140.03;4973678;28;20027;-78
2021/11/07 23:10:00;;;;;;;18.02;10.98;;;;;;;15.39;41.52;102145.41;4973604;28;20077;-77
2021/11/07 23:12:27;;;;;;;22.00;10.55;;;;;;;15.40;41.17;102138.75;4956128;28;20034;-78
2021/11/07 23:14:57;;;;;;;19.20;12.38;;;;;;;15.39;41.42;102139.91;4976201;28;20458;-78
2021/11/07 23:17:28;;;;;;;17.25;10.45;;;;;;;15.38;41.60;102140.22;4977134;28;20046;-79
2021/11/07 23:19:57;;;;;;;16.98;9.98;;;;;;;15.50;41.46;102137.72;4959674;28;20027;-78